Time;durP1;ratioP1;P1;durP2;ratioP2;P2;SDS_P1;SDS_P2;PMS_P1;PMS_P2;Temp;Humidity;BMP_temperature;BMP_pressure;BME280_temperature;BME280_humidity;BME280_pressure;Samples;Min_cycle;Max_cycle;Signal;HPM_P1;HPM_P2
2021/11/10 00:02:08;;;;;;;1.00;0.50;;;;;;;0.60;100.00;101481.38;4948058;29;20156;-63
2021/11/10 00:04:52;;;;;;;1.05;0.70;;;;;;;0.70;100.00;101480.09;4922110;29;20399;-55
2021/11/10 00:07:37;;;;;;;1.65;0.77;;;;;;;0.64;100.00;101480.69;4910073;29;20063;-61
2021/11/10 00:10:21;;;;;;;;;;;;;;;0.74;100.00;101495.06;4950481;29;20097;-55
2021/11/10 00:13:24;;;;;;;3.13;1.02;;;;;;;0.57;100.00;101498.59;4938667;28;20401;-60
2021/11/10 00:16:08;;;;;;;2.70;1.02;;;;;;;0.54;100.00;101503.66;4940473;29;20050;-59
2021/11/10 00:18:55;;;;;;;3.15;0.88;;;;;;;0.68;100.00;101500.91;4940060;29;20047;-60
2021/11/10 00:21:40;;;;;;;2.40;1.00;;;;;;;0.70;100.00;101504.47;4939635;29;20051;-61
2021/11/10 00:24:25;;;;;;;2.22;0.90;;;;;;;0.77;100.00;101513.47;4949520;29;20050;-60
2021/11/10 00:27:09;;;;;;;1.75;0.88;;;;;;;0.76;100.00;101517.81;4923211;29;20103;-61
2021/11/10 00:29:54;;;;;;;5.40;0.88;;;;;;;0.72;100.00;101528.94;4942627;28;20098;-59
2021/11/10 00:32:38;;;;;;;1.45;0.80;;;;;;;0.72;100.00;101533.25;4947215;29;20051;-59
2021/11/10 00:35:23;;;;;;;3.00;1.00;;;;;;;0.64;100.00;101543.34;4943769;29;20648;-59
2021/11/10 00:38:08;;;;;;;2.92;1.35;;;;;;;0.60;100.00;101541.41;4924974;29;20426;-57
2021/11/10 00:40:53;;;;;;;2.35;0.90;;;;;;;0.72;100.00;101551.53;4939037;28;20105;-59
2021/11/10 00:43:38;;;;;;;2.60;1.00;;;;;;;0.75;100.00;101551.69;4949316;28;20566;-59
2021/11/10 00:46:22;;;;;;;3.72;1.20;;;;;;;0.81;100.00;101552.84;4947842;29;20070;-60
2021/11/10 00:49:07;;;;;;;1.65;0.75;;;;;;;0.77;100.00;101550.00;4944644;29;20492;-60
2021/11/10 00:51:51;;;;;;;3.67;1.10;;;;;;;0.86;100.00;101553.09;4942424;28;20577;-58
2021/11/10 00:54:35;;;;;;;2.40;1.23;;;;;;;0.84;100.00;101555.63;4940116;29;20464;-61
2021/11/10 00:57:20;;;;;;;5.13;1.20;;;;;;;0.77;100.00;101557.84;4948555;29;20047;-60
2021/11/10 01:00:06;;;;;;;3.10;1.05;;;;;;;0.88;100.00;101557.56;4924331;29;20046;-61
2021/11/10 01:02:52;;;;;;;2.35;1.20;;;;;;;1.01;100.00;101561.59;4944393;29;20062;-61
2021/11/10 01:05:39;;;;;;;1.42;0.80;;;;;;;0.98;100.00;101557.13;4942459;29;20062;-62
2021/11/10 01:08:24;;;;;;;3.92;1.00;;;;;;;1.03;100.00;101567.81;4947992;29;20057;-63
2021/11/10 01:11:10;;;;;;;2.03;0.93;;;;;;;0.95;100.00;101572.66;4928340;29;20119;-57
2021/11/10 01:13:55;;;;;;;2.53;0.70;;;;;;;1.01;100.00;101586.00;4926939;29;20102;-61
2021/11/10 01:16:39;;;;;;;1.48;0.90;;;;;;;1.12;100.00;101574.34;4940870;29;20050;-59
2021/11/10 01:19:26;;;;;;;2.50;0.85;;;;;;;1.11;100.00;101582.13;4944308;29;20058;-63
2021/11/10 01:22:12;;;;;;;2.13;0.73;;;;;;;1.09;100.00;101570.69;4949447;29;20134;-61
2021/11/10 01:24:57;;;;;;;1.45;0.70;;;;;;;1.13;100.00;101578.75;4930871;29;20050;-60
2021/11/10 01:27:47;;;;;;;2.67;0.68;;;;;;;0.99;100.00;101579.81;4938548;29;20118;-60
2021/11/10 01:30:32;;;;;;;2.55;0.85;;;;;;;0.93;100.00;101578.63;4933882;29;20042;-58
2021/11/10 01:33:17;;;;;;;3.80;0.75;;;;;;;0.93;100.00;101590.00;4946803;29;20054;-56
2021/11/10 01:36:02;;;;;;;4.05;0.88;;;;;;;0.92;100.00;101587.28;4947016;29;20062;-61
2021/11/10 01:38:52;;;;;;;1.15;0.65;;;;;;;1.09;100.00;101594.19;4948503;29;20130;-58
2021/11/10 01:41:43;;;;;;;2.45;1.00;;;;;;;1.09;100.00;101592.50;4948600;28;20102;-62
2021/11/10 01:44:30;;;;;;;1.92;0.73;;;;;;;0.95;100.00;101598.78;4947030;29;20075;-56
2021/11/10 01:47:15;;;;;;;1.70;0.80;;;;;;;0.96;100.00;101602.28;4932885;29;20057;-58
2021/11/10 01:50:03;;;;;;;2.55;0.88;;;;;;;0.88;100.00;101594.09;4917901;29;20139;-57
2021/11/10 01:52:48;;;;;;;1.65;0.90;;;;;;;0.88;100.00;101598.41;4943752;29;20640;-62
2021/11/10 01:55:34;;;;;;;1.10;0.65;;;;;;;1.13;100.00;101597.03;4943888;29;20158;-64
2021/11/10 01:58:19;;;;;;;4.15;0.80;;;;;;;1.28;100.00;101600.34;4946561;29;20054;-61
2021/11/10 02:01:04;;;;;;;1.58;0.85;;;;;;;1.46;100.00;101606.41;4927020;29;20102;-62
2021/11/10 02:03:49;;;;;;;2.08;0.70;;;;;;;1.43;100.00;101608.00;4914079;29;20473;-60
2021/11/10 02:06:40;;;;;;;2.70;0.63;;;;;;;1.28;100.00;101609.91;4926609;29;20130;-63
2021/11/10 02:09:43;;;;;;;1.40;0.70;;;;;;;1.28;100.00;101613.44;4922905;29;20740;-63
2021/11/10 02:12:28;;;;;;;1.98;0.75;;;;;;;1.08;100.00;101627.28;4927423;29;20515;-58
2021/11/10 02:15:18;;;;;;;1.40;0.70;;;;;;;1.14;100.00;101627.53;4931559;29;20106;-60
2021/11/10 02:18:04;;;;;;;0.70;0.50;;;;;;;1.08;100.00;101627.28;4919951;29;20059;-60
2021/11/10 02:20:52;;;;;;;2.70;0.70;;;;;;;1.08;100.00;101631.59;4930809;29;20057;-60
2021/11/10 02:23:37;;;;;;;2.47;0.70;;;;;;;0.94;100.00;101635.28;4944428;29;20082;-63
2021/11/10 02:26:22;;;;;;;1.98;0.70;;;;;;;0.97;100.00;101638.94;4929252;29;20114;-62
2021/11/10 02:29:07;;;;;;;3.72;0.90;;;;;;;0.92;100.00;101639.53;4929667;29;20757;-61
2021/11/10 02:31:54;;;;;;;2.75;0.80;;;;;;;0.77;100.00;101652.75;4921652;29;20098;-61
2021/11/10 02:34:40;;;;;;;2.90;0.70;;;;;;;0.76;100.00;101653.56;4938248;29;20530;-63
2021/11/10 02:37:25;;;;;;;1.38;0.80;;;;;;;0.65;100.00;101651.22;4935756;29;20049;-62
2021/11/10 02:40:10;;;;;;;4.07;0.68;;;;;;;0.66;100.00;101650.44;4920312;29;20051;-62
2021/11/10 02:42:56;;;;;;;1.70;0.55;;;;;;;0.72;100.00;101661.16;4933227;29;20106;-60
2021/11/10 02:45:40;;;;;;;5.40;1.30;;;;;;;0.76;100.00;101652.66;4934060;29;20110;-63
2021/11/10 02:48:25;;;;;;;1.92;1.00;;;;;;;0.81;100.00;101657.28;4938540;29;20142;-58
2021/11/10 02:51:09;;;;;;;2.50;0.80;;;;;;;0.78;100.00;101662.34;4943336;29;20053;-64
2021/11/10 02:53:54;;;;;;;0.82;0.77;;;;;;;0.73;100.00;101655.13;4933211;29;20532;-59
2021/11/10 02:56:39;;;;;;;1.52;0.80;;;;;;;0.78;100.00;101664.97;4929171;29;20050;-61
2021/11/10 02:59:24;;;;;;;1.45;0.75;;;;;;;0.82;100.00;101664.28;4932928;29;20054;-60
2021/11/10 03:02:10;;;;;;;1.20;0.70;;;;;;;0.77;100.00;101663.19;4946789;29;20077;-63
2021/11/10 03:04:55;;;;;;;1.05;0.73;;;;;;;0.79;100.00;101674.56;4947616;29;20053;-60
2021/11/10 03:07:40;;;;;;;2.00;1.00;;;;;;;0.90;100.00;101681.22;4919633;29;20098;-62
2021/11/10 03:10:24;;;;;;;1.58;0.95;;;;;;;0.91;100.00;101684.75;4929006;29;20058;-63
2021/11/10 03:13:11;;;;;;;1.88;0.80;;;;;;;1.01;100.00;101677.44;4933621;29;20066;-59
2021/11/10 03:15:56;;;;;;;3.63;0.82;;;;;;;1.03;100.00;101672.28;4921208;29;20054;-61
2021/11/10 03:18:42;;;;;;;4.28;0.90;;;;;;;1.11;100.00;101671.81;4944986;29;20050;-61
2021/11/10 03:21:27;;;;;;;1.45;0.70;;;;;;;1.03;100.00;101675.75;4918108;29;20082;-62
2021/11/10 03:24:13;;;;;;;1.88;1.23;;;;;;;0.86;100.00;101674.06;4943890;29;20171;-61
2021/11/10 03:26:57;;;;;;;1.85;0.75;;;;;;;0.68;100.00;101670.56;4916056;29;20054;-61
2021/11/10 03:29:42;;;;;;;2.70;0.75;;;;;;;0.77;100.00;101678.84;4929827;29;20539;-64
2021/11/10 03:32:29;;;;;;;1.70;0.63;;;;;;;0.89;100.00;101683.75;4943253;29;20049;-64
2021/11/10 03:35:16;;;;;;;4.25;1.55;;;;;;;0.90;100.00;101677.75;4920455;29;20784;-62
2021/11/10 03:38:01;;;;;;;0.85;0.70;;;;;;;0.56;100.00;101669.97;4932139;29;20144;-61
2021/11/10 03:40:47;;;;;;;2.63;0.90;;;;;;;0.84;100.00;101690.47;4932199;29;20051;-62
2021/11/10 03:43:35;;;;;;;0.93;0.63;;;;;;;0.82;100.00;101686.91;4915337;29;20094;-62
2021/11/10 03:46:23;;;;;;;2.25;0.80;;;;;;;0.76;100.00;101697.03;4941712;29;20110;-63
2021/11/10 03:49:10;;;;;;;2.42;0.82;;;;;;;0.87;100.00;101701.09;4917333;29;20696;-60
2021/11/10 03:51:55;;;;;;;;;;;;;;;0.95;100.00;101710.19;4931016;29;20106;-62
2021/11/10 03:54:44;;;;;;;4.50;1.20;;;;;;;1.11;100.00;101710.13;4938338;29;19925;-61
2021/11/10 03:57:29;;;;;;;2.30;1.10;;;;;;;1.16;100.00;101703.38;4930646;29;20109;-61
2021/11/10 04:00:13;;;;;;;9.57;1.52;;;;;;;1.34;100.00;101699.91;4918959;29;20428;-69
2021/11/10 04:03:11;;;;;;;6.05;1.40;;;;;;;1.43;100.00;101704.69;4932228;29;20566;-65
2021/11/10 04:06:00;;;;;;;3.47;1.20;;;;;;;1.52;100.00;101700.81;4924516;29;20054;-64
2021/11/10 04:08:47;;;;;;;5.28;1.08;;;;;;;1.57;100.00;101701.91;4938900;29;20408;-63
2021/11/10 04:11:32;;;;;;;4.35;1.13;;;;;;;1.69;100.00;101693.72;4905323;29;20294;-60
2021/11/10 04:14:17;;;;;;;11.15;1.40;;;;;;;1.71;100.00;101676.41;4946172;29;20098;-62
2021/11/10 04:17:02;;;;;;;3.80;1.30;;;;;;;1.52;100.00;101698.19;4943387;29;20110;-63
2021/11/10 04:19:47;;;;;;;4.43;1.10;;;;;;;1.48;100.00;101698.88;4949686;29;20639;-62
2021/11/10 04:22:32;;;;;;;3.55;1.10;;;;;;;1.57;100.00;101707.13;4927761;29;20470;-66
2021/11/10 04:25:20;;;;;;;3.28;1.17;;;;;;;1.61;100.00;101710.75;4927761;29;20050;-66
2021/11/10 04:28:06;;;;;;;6.65;1.02;;;;;;;1.71;100.00;101706.06;4937336;29;20542;-71
2021/11/10 04:30:53;;;;;;;2.30;1.50;;;;;;;1.80;100.00;101714.31;4937365;29;20053;-63
2021/11/10 04:33:39;;;;;;;5.57;1.20;;;;;;;1.75;100.00;101708.00;4949560;29;20054;-64
2021/11/10 04:36:29;;;;;;;6.72;1.20;;;;;;;1.69;100.00;101709.41;4941797;29;20063;-62
2021/11/10 04:39:15;;;;;;;5.90;1.40;;;;;;;1.50;100.00;101710.28;4926887;29;20046;-66
2021/11/10 04:42:00;;;;;;;8.75;1.50;;;;;;;1.47;100.00;101715.38;4928955;29;20090;-67
2021/11/10 04:44:49;;;;;;;5.32;1.95;;;;;;;1.48;100.00;101718.88;4928626;29;20066;-68
2021/11/10 04:47:35;;;;;;;8.25;1.63;;;;;;;1.44;100.00;101720.47;4900908;29;20070;-67
2021/11/10 04:50:20;;;;;;;7.32;1.63;;;;;;;1.48;100.00;101713.66;4915694;29;20050;-66
2021/11/10 04:53:04;;;;;;;11.82;1.98;;;;;;;1.60;100.00;101714.22;4921204;29;20086;-66
2021/11/10 04:55:49;;;;;;;8.35;1.92;;;;;;;1.71;100.00;101718.22;4928400;29;20082;-66
2021/11/10 04:58:36;;;;;;;5.78;1.63;;;;;;;1.60;100.00;101720.34;4911324;29;20144;-64
2021/11/10 05:01:27;;;;;;;5.07;1.55;;;;;;;1.35;100.00;101724.34;4927410;29;20054;-65
2021/11/10 05:04:17;;;;;;;3.58;1.40;;;;;;;1.24;100.00;101721.22;4921825;29;20162;-66
2021/11/10 05:07:04;;;;;;;7.05;1.90;;;;;;;1.16;100.00;101716.44;4916984;29;20912;-67
2021/11/10 05:09:49;;;;;;;9.82;2.15;;;;;;;1.35;100.00;101721.75;4924004;29;20090;-67
2021/11/10 05:12:34;;;;;;;6.57;1.52;;;;;;;1.17;100.00;101707.78;4912836;29;20090;-67
2021/11/10 05:15:19;;;;;;;4.47;1.50;;;;;;;1.12;100.00;101724.97;4926399;29;20416;-63
2021/11/10 05:18:04;;;;;;;5.38;1.85;;;;;;;1.09;100.00;101730.03;4925843;29;20467;-63
2021/11/10 05:20:49;;;;;;;6.05;2.60;;;;;;;0.87;100.00;101732.41;4926552;29;20572;-64
2021/11/10 05:23:34;;;;;;;11.25;2.67;;;;;;;1.01;100.00;101732.28;4911290;29;20054;-62
2021/11/10 05:26:19;;;;;;;12.27;2.58;;;;;;;1.07;100.00;101735.16;4911392;29;20051;-63
2021/11/10 05:29:08;;;;;;;12.38;3.20;;;;;;;1.23;100.00;101735.09;4926780;29;20057;-64
2021/11/10 05:31:54;;;;;;;12.00;3.28;;;;;;;1.17;100.00;101732.19;4912028;29;20067;-62
2021/11/10 05:34:39;;;;;;;9.27;4.35;;;;;;;1.12;100.00;101744.16;4927105;29;20050;-64
2021/11/10 05:37:28;;;;;;;16.50;4.45;;;;;;;1.06;100.00;101745.56;4928192;29;20082;-63
2021/11/10 05:40:13;;;;;;;16.52;4.88;;;;;;;1.21;100.00;101743.69;4911018;29;20075;-66
2021/11/10 05:42:58;;;;;;;10.65;4.43;;;;;;;1.35;100.00;101742.66;4926482;29;20059;-63
2021/11/10 05:45:42;;;;;;;18.50;4.40;;;;;;;1.55;100.00;101750.63;4925068;29;20586;-64
2021/11/10 05:48:27;;;;;;;15.68;5.88;;;;;;;1.61;100.00;101748.28;4913228;29;20066;-63
2021/11/10 05:51:12;;;;;;;10.38;3.72;;;;;;;1.44;100.00;101757.06;4923190;29;20408;-64
2021/11/10 05:53:57;;;;;;;11.18;3.78;;;;;;;1.27;100.00;101749.22;4924126;29;20058;-68
2021/11/10 05:56:43;;;;;;;9.80;3.90;;;;;;;1.15;100.00;101749.50;4937613;29;20054;-66
2021/11/10 05:59:27;;;;;;;13.13;4.28;;;;;;;1.17;100.00;101742.66;4926466;29;20118;-62
2021/11/10 06:02:13;;;;;;;10.90;3.60;;;;;;;1.20;100.00;101741.91;4927632;29;20114;-64
2021/11/10 06:04:57;;;;;;;12.93;3.20;;;;;;;1.37;100.00;101748.81;4926116;29;20750;-63
2021/11/10 06:07:45;;;;;;;8.25;2.70;;;;;;;1.53;100.00;101741.78;4928055;29;20082;-63
2021/11/10 06:10:29;;;;;;;13.70;3.95;;;;;;;1.53;100.00;101747.03;4927204;29;20125;-65
2021/11/10 06:13:14;;;;;;;5.00;2.97;;;;;;;1.46;100.00;101755.38;4924060;29;20134;-65
2021/11/10 06:15:58;;;;;;;10.25;3.83;;;;;;;1.47;100.00;101753.69;4925824;29;20451;-65
2021/11/10 06:18:43;;;;;;;10.38;3.80;;;;;;;1.76;100.00;101748.09;4920689;29;20156;-63
2021/11/10 06:21:28;;;;;;;11.85;4.72;;;;;;;1.85;100.00;101746.81;4924910;29;20091;-64
2021/11/10 06:24:14;;;;;;;6.68;2.65;;;;;;;1.73;100.00;101746.22;4928344;29;20047;-62
2021/11/10 06:26:58;;;;;;;6.50;2.25;;;;;;;1.83;100.00;101744.94;4920852;29;20055;-62
2021/11/10 06:29:43;;;;;;;9.23;2.83;;;;;;;1.73;100.00;101754.09;4917840;29;20110;-67
2021/11/10 06:32:27;;;;;;;10.68;3.17;;;;;;;1.55;100.00;101739.25;4924160;29;20474;-62
2021/11/10 06:35:13;;;;;;;5.05;2.42;;;;;;;1.89;100.00;101745.22;4929969;28;20118;-62
2021/11/10 06:37:58;;;;;;;12.98;3.33;;;;;;;1.61;100.00;101748.28;4944465;29;20066;-62
2021/11/10 06:40:43;;;;;;;10.63;3.30;;;;;;;1.93;100.00;101745.44;4923144;29;20194;-71
2021/11/10 06:43:28;;;;;;;23.90;4.07;;;;;;;2.31;100.00;101750.69;4918758;29;20054;-64
2021/11/10 06:46:14;;;;;;;5.53;2.70;;;;;;;2.56;100.00;101752.63;4930627;29;20432;-65
2021/11/10 06:48:59;;;;;;;9.85;3.10;;;;;;;2.60;100.00;101744.06;4941050;29;20058;-61
2021/11/10 06:51:43;;;;;;;11.65;3.00;;;;;;;2.58;100.00;101757.13;4930033;29;20062;-62
2021/11/10 06:54:28;;;;;;;6.40;3.05;;;;;;;2.85;100.00;101739.94;4919331;29;20057;-67
2021/11/10 06:57:13;;;;;;;15.75;5.95;;;;;;;3.16;100.00;101755.22;4942119;29;20416;-63
2021/11/10 06:59:58;;;;;;;9.85;2.95;;;;;;;3.28;100.00;101754.00;4932481;29;20062;-66
2021/11/10 07:02:43;;;;;;;7.63;2.90;;;;;;;3.11;100.00;101744.56;4928078;29;20702;-65
2021/11/10 07:05:28;;;;;;;10.23;3.17;;;;;;;3.15;100.00;101741.22;4932127;29;20077;-63
2021/11/10 07:08:13;;;;;;;10.15;3.50;;;;;;;2.47;100.00;101733.91;4940618;29;20429;-68
2021/11/10 07:10:58;;;;;;;10.65;3.25;;;;;;;2.51;100.00;101738.44;4941558;29;20380;-67
2021/11/10 07:13:43;;;;;;;5.40;2.75;;;;;;;2.31;100.00;101740.22;4942054;29;20054;-71
2021/11/10 07:16:28;;;;;;;6.82;2.70;;;;;;;2.75;100.00;101729.03;4914905;29;20106;-65
2021/11/10 07:19:13;;;;;;;6.22;2.65;;;;;;;2.83;100.00;101712.81;4911648;29;20103;-66
2021/11/10 07:21:58;;;;;;;5.80;2.38;;;;;;;2.71;100.00;101722.78;4942192;29;20046;-65
2021/11/10 07:24:42;;;;;;;9.68;2.60;;;;;;;2.68;100.00;101732.19;4947123;29;20558;-64
2021/11/10 07:27:27;;;;;;;10.10;2.65;;;;;;;2.22;100.00;101729.31;4945628;29;20101;-71
2021/11/10 07:30:13;;;;;;;4.95;2.83;;;;;;;2.03;100.00;101724.09;4915207;29;20055;-69
2021/11/10 07:32:57;;;;;;;3.60;2.60;;;;;;;1.84;100.00;101723.19;4937393;29;20439;-68
2021/11/10 07:35:43;;;;;;;6.32;2.58;;;;;;;1.93;100.00;101728.88;4942482;29;20114;-67
2021/11/10 07:38:28;;;;;;;4.85;2.38;;;;;;;2.24;100.00;101735.53;4918721;29;20074;-67
2021/11/10 07:41:15;;;;;;;8.33;2.67;;;;;;;3.32;100.00;101744.53;4934701;29;20081;-67
2021/11/10 07:44:02;;;;;;;7.72;2.80;;;;;;;5.07;100.00;101734.47;4923404;29;20664;-67
2021/11/10 07:46:52;;;;;;;3.80;2.55;;;;;;;5.88;97.78;101733.56;4942181;29;20109;-67
2021/11/10 07:49:37;;;;;;;9.55;3.25;;;;;;;6.86;90.05;101738.16;4934682;29;20194;-66
2021/11/10 07:52:22;;;;;;;6.18;2.55;;;;;;;7.37;83.57;101728.03;4948456;29;20566;-68
2021/11/10 07:55:07;;;;;;;5.25;2.75;;;;;;;8.48;77.14;101733.16;4936176;29;20062;-63
2021/11/10 07:57:53;;;;;;;7.05;2.70;;;;;;;9.47;69.02;101740.25;4949369;29;20110;-69
2021/11/10 08:00:40;;;;;;;11.20;2.60;;;;;;;9.82;62.95;101735.47;4951106;29;20146;-71
2021/11/10 08:03:24;;;;;;;3.72;2.33;;;;;;;10.71;55.58;101749.03;4933153;29;20054;-66
2021/11/10 08:06:09;;;;;;;3.90;2.25;;;;;;;11.45;51.88;101755.06;4945729;28;20415;-70
2021/11/10 08:08:53;;;;;;;6.80;2.15;;;;;;;11.22;48.30;101746.00;4929267;29;20150;-70
2021/11/10 08:11:39;;;;;;;;;;;;;;;11.71;53.56;101750.88;4923410;29;20070;-69
2021/11/10 08:14:23;;;;;;;5.45;2.60;;;;;;;10.37;47.81;101744.22;4937194;29;20279;-72
2021/11/10 08:17:08;;;;;;;6.95;2.42;;;;;;;9.00;56.34;101751.78;4945711;29;20046;-71
2021/11/10 08:19:53;;;;;;;3.97;1.90;;;;;;;8.68;59.47;101752.97;4935407;29;20097;-70
2021/11/10 08:22:38;;;;;;;4.75;2.50;;;;;;;8.37;61.91;101742.63;4932324;29;20175;-71
2021/11/10 08:25:22;;;;;;;2.20;1.60;;;;;;;8.55;64.71;101746.53;4933631;29;20073;-70
2021/11/10 08:28:08;;;;;;;5.72;2.20;;;;;;;9.17;61.39;101745.03;4933993;29;20054;-72
2021/11/10 08:30:56;;;;;;;5.88;1.90;;;;;;;9.49;57.49;101747.34;4947000;29;20041;-71
2021/11/10 08:33:42;;;;;;;6.43;1.92;;;;;;;11.04;51.45;101753.81;4934829;29;20585;-70
2021/11/10 08:36:27;;;;;;;11.80;2.10;;;;;;;11.91;44.78;101752.75;4913538;29;20092;-67
2021/11/10 08:39:17;;;;;;;4.75;1.80;;;;;;;10.09;50.17;101754.47;4925251;29;20143;-73
2021/11/10 08:42:04;;;;;;;5.53;1.90;;;;;;;9.49;52.49;101750.00;4925483;29;20062;-66
2021/11/10 08:44:52;;;;;;;7.05;1.67;;;;;;;9.17;56.81;101737.09;4925238;29;20178;-66
2021/11/10 08:47:41;;;;;;;6.95;2.03;;;;;;;8.86;56.36;101743.59;4923807;29;20050;-66
2021/11/10 08:50:27;;;;;;;5.60;1.70;;;;;;;8.47;57.28;101734.91;4917594;29;20106;-67
2021/11/10 08:53:18;;;;;;;7.50;2.00;;;;;;;8.69;60.17;101739.78;4940177;29;20058;-67
2021/11/10 08:56:03;;;;;;;6.30;2.63;;;;;;;8.68;59.40;101735.34;4928088;29;20139;-68
2021/11/10 08:58:48;;;;;;;5.15;2.22;;;;;;;8.72;57.84;101739.84;4925662;29;20536;-67
2021/11/10 09:01:34;;;;;;;3.50;2.10;;;;;;;8.40;58.54;101740.97;4925403;29;20058;-65
2021/11/10 09:04:21;;;;;;;4.28;2.20;;;;;;;8.99;58.43;101727.06;4913066;29;20085;-65
2021/11/10 09:07:07;;;;;;;4.68;2.22;;;;;;;8.69;57.40;101729.19;4929447;29;20062;-65
2021/11/10 09:09:52;;;;;;;9.13;2.60;;;;;;;8.51;60.98;101733.25;4922689;29;20119;-64
2021/11/10 09:12:38;;;;;;;7.72;2.30;;;;;;;8.61;58.48;101728.16;4924150;29;20176;-67
2021/11/10 09:15:23;;;;;;;8.38;2.83;;;;;;;8.85;60.05;101731.25;4924601;29;20054;-64
2021/11/10 09:18:08;;;;;;;5.90;2.25;;;;;;;9.20;56.88;101731.84;4928141;29;20079;-68
2021/11/10 09:20:57;;;;;;;4.35;2.00;;;;;;;8.95;58.23;101735.81;4929020;29;20240;-65
2021/11/10 09:23:41;;;;;;;6.50;2.47;;;;;;;9.05;58.88;101740.44;4924695;29;20107;-66
2021/11/10 09:26:26;;;;;;;6.53;2.35;;;;;;;8.92;57.43;101729.59;4926809;29;20102;-65
2021/11/10 09:29:11;;;;;;;3.90;1.90;;;;;;;8.69;58.14;101734.47;4924823;29;20123;-68
2021/11/10 09:31:56;;;;;;;4.88;2.35;;;;;;;8.97;58.42;101723.53;4925223;29;20825;-65
2021/11/10 09:34:41;;;;;;;6.68;2.10;;;;;;;8.80;56.22;101722.34;4926397;29;20054;-64
2021/11/10 09:37:27;;;;;;;8.57;2.35;;;;;;;8.95;55.07;101735.81;4926078;29;20114;-69
2021/11/10 09:40:16;;;;;;;5.55;2.28;;;;;;;9.72;53.89;101733.59;4926148;29;20098;-67
2021/11/10 09:43:01;;;;;;;6.18;2.67;;;;;;;10.16;51.45;101733.34;4925199;29;20050;-65
2021/11/10 09:45:47;;;;;;;5.15;2.60;;;;;;;10.85;49.35;101743.88;4920970;29;20115;-63
2021/11/10 09:48:33;;;;;;;13.15;4.25;;;;;;;10.70;48.51;101736.66;4922074;29;20107;-63
2021/11/10 09:51:21;;;;;;;7.68;3.25;;;;;;;11.38;47.42;101750.56;4925849;29;20058;-66
2021/11/10 09:54:06;;;;;;;6.25;3.40;;;;;;;11.61;44.50;101741.03;4925541;29;20135;-63
2021/11/10 09:56:54;;;;;;;11.25;3.60;;;;;;;11.60;42.79;101741.91;4924936;29;20098;-66
2021/11/10 09:59:40;;;;;;;8.93;3.60;;;;;;;11.61;41.46;101733.06;4923612;29;20488;-64
2021/11/10 10:02:27;;;;;;;6.68;3.17;;;;;;;12.02;40.14;101729.78;4924575;29;20219;-63
2021/11/10 10:05:13;;;;;;;4.72;2.47;;;;;;;12.63;38.34;101728.28;4925077;29;20372;-67
2021/11/10 10:08:01;;;;;;;7.22;2.75;;;;;;;13.18;37.32;101724.88;4929537;29;20090;-65
2021/11/10 10:10:48;;;;;;;8.23;2.55;;;;;;;13.41;35.28;101717.75;4912108;29;20054;-63
2021/11/10 10:13:32;;;;;;;5.60;3.67;;;;;;;13.61;35.94;101721.31;4928977;29;20472;-65
2021/11/10 10:16:22;;;;;;;5.95;2.80;;;;;;;13.93;34.24;101707.00;4915931;29;20067;-65
2021/11/10 10:19:10;;;;;;;9.98;2.90;;;;;;;14.94;33.69;101710.97;4910913;29;20058;-66
2021/11/10 10:22:02;;;;;;;12.00;3.08;;;;;;;15.17;30.97;101720.63;4916939;29;20484;-65
2021/11/10 10:24:52;;;;;;;9.73;3.05;;;;;;;16.15;29.16;101709.88;4924695;29;20114;-65
2021/11/10 10:27:37;;;;;;;8.18;2.83;;;;;;;16.29;29.32;101715.03;4896000;29;20099;-66
2021/11/10 10:30:28;;;;;;;;;;;;;;;15.59;29.58;101717.59;4924408;29;20133;-65
2021/11/10 10:33:26;;;;;;;5.00;2.92;;;;;;;14.71;30.26;101705.78;4919858;29;19965;-66
2021/11/10 10:36:15;;;;;;;6.95;4.20;;;;;;;14.64;31.35;101701.38;4929022;29;20113;-67
2021/11/10 10:39:06;;;;;;;10.07;3.33;;;;;;;15.01;30.18;101699.34;4925901;29;20047;-66
2021/11/10 10:41:55;;;;;;;7.38;3.05;;;;;;;15.13;30.28;101693.91;4931306;29;20077;-64
2021/11/10 10:44:44;;;;;;;4.25;2.20;;;;;;;15.41;29.80;101700.84;4914117;29;20086;-69
2021/11/10 10:47:59;;;;;;;5.50;2.38;;;;;;;14.42;32.41;101689.06;4927750;29;20062;-65
2021/11/10 10:50:55;;;;;;;5.25;2.50;;;;;;;13.65;32.57;101678.63;4945816;29;20053;-66
2021/11/10 10:53:42;;;;;;;6.35;2.60;;;;;;;14.27;32.09;101678.44;4932897;29;20046;-66
2021/11/10 10:56:30;;;;;;;7.15;2.40;;;;;;;14.55;31.31;101672.06;4941689;29;20054;-66
2021/11/10 10:59:16;;;;;;;9.35;3.15;;;;;;;14.68;31.37;101671.09;4931903;29;20050;-67
2021/11/10 11:02:09;;;;;;;10.80;2.90;;;;;;;14.08;31.35;101659.84;4911816;29;20871;-67
2021/11/10 11:04:54;;;;;;;9.70;3.03;;;;;;;14.17;31.92;101668.69;4940971;29;20479;-65
2021/11/10 11:07:38;;;;;;;8.80;2.72;;;;;;;14.48;31.61;101666.78;4928941;29;20097;-65
2021/11/10 11:10:25;;;;;;;;;;;;;;;14.97;31.01;101681.56;4929931;29;20122;-68
2021/11/10 11:13:10;;;;;;;4.72;2.08;;;;;;;14.16;32.43;101671.34;4930718;29;19968;-64
2021/11/10 11:16:04;;;;;;;8.70;1.95;;;;;;;14.71;31.20;101679.09;4931482;29;20474;-67
2021/11/10 11:18:49;;;;;;;4.45;2.00;;;;;;;13.35;32.70;101673.34;4923706;29;20211;-65
2021/11/10 11:21:45;;;;;;;;;;;;;;;13.19;33.96;101654.72;4935027;29;20498;-65
2021/11/10 11:24:42;;;;;;;3.42;1.98;;;;;;;13.54;33.58;101655.56;4945339;28;20012;-65
2021/11/10 11:27:30;;;;;;;5.97;2.17;;;;;;;13.72;34.45;101653.72;4948698;29;20114;-65
2021/11/10 11:30:16;;;;;;;7.95;2.67;;;;;;;13.65;33.83;101645.75;4946408;28;20137;-69
2021/11/10 11:33:13;;;;;;;7.70;2.15;;;;;;;13.36;33.92;101636.91;4945255;29;20424;-65
2021/11/10 11:36:00;;;;;;;10.18;3.33;;;;;;;12.03;35.68;101632.31;4946356;29;20066;-65
2021/11/10 11:38:45;;;;;;;6.53;3.40;;;;;;;12.13;37.82;101634.09;4922077;29;20440;-67
2021/11/10 11:41:30;;;;;;;;;;;;;;;11.55;38.99;101627.59;4935856;29;20071;-67
2021/11/10 11:44:17;;;;;;;8.70;3.17;;;;;;;10.97;42.69;101621.91;4937112;29;19965;-65
2021/11/10 11:47:05;;;;;;;4.85;2.40;;;;;;;10.69;42.58;101627.84;4943463;29;20054;-63
2021/11/10 11:49:51;;;;;;;8.20;2.13;;;;;;;10.81;44.35;101620.00;4947699;29;20046;-78
2021/11/10 11:52:37;;;;;;;7.47;2.08;;;;;;;11.06;43.02;101621.97;4929659;29;20055;-68
2021/11/10 11:55:29;;;;;;;2.92;1.90;;;;;;;11.13;44.98;101627.34;4931327;29;20502;-67
2021/11/10 11:58:21;;;;;;;4.25;2.17;;;;;;;11.12;45.74;101624.69;4933660;29;20078;-67
2021/11/10 12:01:10;;;;;;;10.30;3.35;;;;;;;11.09;46.17;101629.97;4934188;29;20111;-67
2021/11/10 12:04:01;;;;;;;9.20;2.75;;;;;;;10.34;48.37;101613.34;4934230;29;20150;-66
2021/11/10 12:06:48;;;;;;;4.57;2.88;;;;;;;8.79;54.13;101617.38;4929145;29;20460;-67
2021/11/10 12:09:34;;;;;;;4.95;2.65;;;;;;;8.36;59.24;101608.69;4934558;29;20138;-67
2021/11/10 12:12:21;;;;;;;7.10;2.80;;;;;;;7.98;64.29;101626.44;4921272;29;20062;-71
2021/11/10 12:15:05;;;;;;;10.68;3.03;;;;;;;8.04;67.17;101617.75;4932454;29;20045;-66
2021/11/10 12:18:09;;;;;;;10.80;3.05;;;;;;;8.01;69.80;101620.31;4932714;29;20066;-65
2021/11/10 12:21:02;;;;;;;13.13;3.55;;;;;;;8.37;69.69;101623.69;4932931;29;20054;-65
2021/11/10 12:23:50;;;;;;;14.25;4.60;;;;;;;8.07;69.87;101621.31;4947491;29;20046;-65
2021/11/10 12:27:05;;;;;;;12.18;3.42;;;;;;;8.06;71.31;101622.19;4945562;28;20387;-63
2021/11/10 12:30:00;;;;;;;9.15;3.65;;;;;;;7.78;71.20;101606.66;4944778;29;20666;-63
2021/11/10 12:32:58;;;;;;;8.13;2.53;;;;;;;7.89;71.46;101618.34;4913569;29;20055;-67
2021/11/10 12:35:50;;;;;;;6.28;2.47;;;;;;;8.15;69.60;101611.78;4925969;29;20062;-69
2021/11/10 12:38:36;;;;;;;7.95;2.40;;;;;;;7.62;69.96;101617.75;4934918;29;20263;-68
2021/11/10 12:41:24;;;;;;;8.98;2.40;;;;;;;7.77;70.54;101609.25;4921659;29;20078;-72
2021/11/10 12:44:27;;;;;;;14.05;2.72;;;;;;;8.24;69.51;101609.34;4945750;29;20102;-66
2021/11/10 12:47:38;;;;;;;7.00;2.92;;;;;;;8.12;68.91;101614.38;4947296;29;20057;-68
2021/11/10 12:50:33;;;;;;;9.18;3.30;;;;;;;7.43;72.58;101612.03;4934590;29;20210;-67
2021/11/10 12:53:36;;;;;;;;;;;;;;;6.96;76.18;101602.16;4934259;29;20196;-70
2021/11/10 12:56:47;;;;;;;9.95;3.00;;;;;;;6.91;79.08;101595.88;4944144;29;20047;-67
2021/11/10 12:59:37;;;;;;;9.98;2.90;;;;;;;6.93;79.11;101596.81;4914312;29;20054;-73